createdAt,value
2023-02-14T00:01:29.775Z,18.95
2023-02-14T00:04:01.054Z,18.15
2023-02-14T00:06:35.663Z,16.10
2023-02-14T00:09:03.399Z,16.42
2023-02-14T00:11:30.617Z,18.17
2023-02-14T00:14:16.718Z,15.73
2023-02-14T00:16:44.995Z,17.85
2023-02-14T00:19:14.584Z,17.90
2023-02-14T00:21:41.963Z,16.70
2023-02-14T00:24:15.134Z,16.40
2023-02-14T00:26:43.366Z,17.15
2023-02-14T00:29:13.820Z,17.80
2023-02-14T00:31:42.219Z,15.75
2023-02-14T00:34:10.952Z,16.92
2023-02-14T00:36:39.349Z,15.48
2023-02-14T00:39:08.710Z,15.55
2023-02-14T00:41:36.343Z,16.33
2023-02-14T00:44:03.932Z,16.25
2023-02-14T00:46:31.681Z,15.57
2023-02-14T00:48:59.240Z,15.57
2023-02-14T00:51:26.637Z,14.55
2023-02-14T00:53:54.272Z,17.23
2023-02-14T00:56:21.976Z,18.25
2023-02-14T00:58:49.615Z,17.55
2023-02-14T01:01:18.369Z,16.67
2023-02-14T01:03:45.986Z,17.63
2023-02-14T01:06:16.297Z,17.55
2023-02-14T01:08:43.611Z,15.00
2023-02-14T01:11:18.459Z,14.95
2023-02-14T01:13:46.639Z,19.05
2023-02-14T01:16:17.085Z,16.10
2023-02-14T01:18:44.954Z,15.15
2023-02-14T01:21:14.975Z,17.75
2023-02-14T01:23:43.533Z,16.75
2023-02-14T01:26:11.966Z,17.13
2023-02-14T01:28:40.471Z,16.88
2023-02-14T01:31:23.178Z,16.02
2023-02-14T01:33:51.150Z,17.33
2023-02-14T01:36:30.213Z,19.42
2023-02-14T01:38:59.801Z,16.67
2023-02-14T01:41:29.979Z,16.98
2023-02-14T01:44:03.535Z,16.40
2023-02-14T01:46:33.490Z,17.35
2023-02-14T01:49:14.879Z,18.73
2023-02-14T01:51:46.526Z,16.23
2023-02-14T01:54:14.081Z,17.77
2023-02-14T01:56:54.672Z,17.20
2023-02-14T01:59:27.527Z,17.48
2023-02-14T02:01:55.013Z,15.35
2023-02-14T02:04:38.365Z,16.23
2023-02-14T02:07:14.997Z,16.98
2023-02-14T02:09:50.921Z,17.05
2023-02-14T02:12:21.579Z,18.48
2023-02-14T02:14:52.564Z,17.27
2023-02-14T02:17:38.525Z,18.02
2023-02-14T02:20:20.955Z,18.60
2023-02-14T02:23:29.916Z,17.25
2023-02-14T02:26:08.701Z,16.35
2023-02-14T02:28:50.728Z,16.02
2023-02-14T02:31:35.277Z,16.30
2023-02-14T02:34:11.475Z,15.73
2023-02-14T02:37:11.053Z,18.33
2023-02-14T02:40:22.352Z,17.05
2023-02-14T02:43:03.932Z,17.38
2023-02-14T02:46:11.498Z,16.65
2023-02-14T02:48:46.874Z,15.43
2023-02-14T02:51:46.360Z,16.15
2023-02-14T02:57:58.751Z,17.85
2023-02-14T03:00:26.618Z,17.63
2023-02-14T03:03:15.477Z,16.85
2023-02-14T03:05:44.047Z,19.23
2023-02-14T03:08:11.333Z,18.80
2023-02-14T03:10:40.406Z,18.25
2023-02-14T03:13:45.107Z,16.52
2023-02-14T03:16:15.611Z,16.65
2023-02-14T03:18:55.817Z,17.60
2023-02-14T03:21:32.551Z,18.30
2023-02-14T03:24:15.686Z,20.20
2023-02-14T03:27:30.574Z,18.20
2023-02-14T03:30:10.504Z,17.27
2023-02-14T03:33:04.264Z,16.45
2023-02-14T03:35:47.978Z,19.08
2023-02-14T03:38:41.769Z,18.27
2023-02-14T03:41:14.222Z,18.05
2023-02-14T03:43:52.792Z,18.05
2023-02-14T03:46:55.321Z,18.40
2023-02-14T03:49:26.823Z,18.65
2023-02-14T03:51:56.408Z,17.92
2023-02-14T03:54:25.878Z,17.77
2023-02-14T03:57:08.998Z,19.90
2023-02-14T03:59:36.498Z,16.30
2023-02-14T04:02:10.027Z,17.48
2023-02-14T04:04:40.866Z,18.92
2023-02-14T04:07:20.170Z,15.93
2023-02-14T04:09:48.746Z,21.73
2023-02-14T04:12:19.849Z,18.15
2023-02-14T04:17:39.293Z,16.85
2023-02-14T04:20:07.179Z,17.50
2023-02-14T04:22:34.429Z,18.38
2023-02-14T04:25:01.732Z,19.55
2023-02-14T04:27:29.252Z,19.45
2023-02-14T04:29:56.502Z,16.13
2023-02-14T04:32:23.816Z,16.85
2023-02-14T04:34:51.110Z,19.20
2023-02-14T04:37:20.101Z,18.52
2023-02-14T04:39:47.534Z,17.85
2023-02-14T04:42:15.324Z,20.05
2023-02-14T04:44:42.699Z,19.25
2023-02-14T04:47:10.484Z,17.85
2023-02-14T04:49:37.678Z,18.58
2023-02-14T04:52:06.269Z,19.63
2023-02-14T04:54:33.666Z,18.00
2023-02-14T04:57:00.950Z,17.88
2023-02-14T04:59:28.644Z,18.30
2023-02-14T05:01:56.036Z,17.02
2023-02-14T05:04:23.547Z,17.83
2023-02-14T05:06:51.162Z,18.10
2023-02-14T05:09:24.861Z,17.13
2023-02-14T05:11:52.565Z,19.05
2023-02-14T05:14:19.720Z,19.05
2023-02-14T05:16:47.645Z,20.52
2023-02-14T05:19:14.899Z,18.20
2023-02-14T05:21:42.116Z,18.25
2023-02-14T05:24:09.283Z,16.98
2023-02-14T05:26:36.765Z,17.52
2023-02-14T05:29:04.132Z,18.63
2023-02-14T05:31:31.472Z,18.90
2023-02-14T05:33:58.753Z,17.52
2023-02-14T05:36:25.985Z,18.35
2023-02-14T05:38:53.298Z,17.92
2023-02-14T05:41:21.319Z,17.60
2023-02-14T05:43:48.446Z,19.98
2023-02-14T05:46:15.954Z,19.38
2023-02-14T05:48:43.327Z,18.15
2023-02-14T05:51:11.298Z,18.77
2023-02-14T05:53:39.245Z,18.92
2023-02-14T05:56:07.134Z,17.48
2023-02-14T05:58:37.814Z,19.50
2023-02-14T06:01:05.288Z,19.65
2023-02-14T06:03:32.566Z,19.52
2023-02-14T06:05:59.753Z,19.85
2023-02-14T06:08:27.514Z,17.88
2023-02-14T06:10:54.718Z,19.55
2023-02-14T06:13:25.353Z,19.65
2023-02-14T06:15:54.994Z,17.27
2023-02-14T06:18:22.443Z,21.02
2023-02-14T06:20:50.108Z,18.77
2023-02-14T06:23:17.897Z,20.25
2023-02-14T06:25:45.025Z,19.33
2023-02-14T06:28:13.477Z,17.00
2023-02-14T06:30:40.862Z,16.88
2023-02-14T06:33:08.108Z,19.40
2023-02-14T06:35:35.396Z,21.25
2023-02-14T06:38:02.686Z,17.90
2023-02-14T06:40:32.967Z,18.98
2023-02-14T06:43:00.124Z,17.63
2023-02-14T06:45:27.406Z,17.83
2023-02-14T06:47:54.585Z,20.33
2023-02-14T06:50:26.973Z,18.27
2023-02-14T06:52:54.328Z,19.83
2023-02-14T06:55:21.604Z,18.67
2023-02-14T06:57:48.969Z,19.83
2023-02-14T07:00:16.566Z,19.02
2023-02-14T07:02:43.937Z,17.90
2023-02-14T07:05:11.340Z,16.75
2023-02-14T07:07:38.712Z,18.20
2023-02-14T07:10:06.599Z,16.90
2023-02-14T07:12:37.145Z,16.95
2023-02-14T07:15:07.651Z,18.40
2023-02-14T07:17:35.344Z,18.55
2023-02-14T07:20:02.984Z,17.77
2023-02-14T07:22:30.549Z,16.35
2023-02-14T07:25:00.401Z,18.98
2023-02-14T07:27:27.698Z,17.77
2023-02-14T07:29:55.842Z,18.63
2023-02-14T07:32:23.887Z,17.75
2023-02-14T07:34:53.587Z,19.33
2023-02-14T07:37:21.477Z,18.33
2023-02-14T07:39:49.235Z,17.83
2023-02-14T07:42:16.978Z,17.90
2023-02-14T07:44:45.930Z,18.90
2023-02-14T07:47:13.834Z,18.17
2023-02-14T07:49:41.223Z,19.67
2023-02-14T07:52:08.892Z,19.95
2023-02-14T07:54:36.305Z,18.30
2023-02-14T07:57:03.632Z,20.40
2023-02-14T07:59:30.911Z,20.27
2023-02-14T08:01:58.467Z,20.63
2023-02-14T08:04:26.366Z,17.40
2023-02-14T08:06:57.268Z,18.60
2023-02-14T08:09:27.559Z,19.80
2023-02-14T08:12:14.829Z,19.75
2023-02-14T08:14:43.363Z,20.02
2023-02-14T08:17:13.781Z,18.95
2023-02-14T08:19:41.314Z,21.02
2023-02-14T08:22:08.925Z,17.92
2023-02-14T08:24:36.362Z,21.77
2023-02-14T08:27:04.534Z,21.08
2023-02-14T08:29:31.852Z,18.70
2023-02-14T08:32:00.766Z,19.65
2023-02-14T08:34:28.130Z,20.50
2023-02-14T08:36:55.430Z,19.20
2023-02-14T08:39:22.665Z,21.45
2023-02-14T08:41:49.949Z,20.33
2023-02-14T08:44:17.165Z,20.13
2023-02-14T08:46:45.608Z,19.40
2023-02-14T08:49:12.878Z,19.13
2023-02-14T08:51:40.189Z,19.98
2023-02-14T08:54:07.402Z,18.08
2023-02-14T08:56:35.626Z,17.90
2023-02-14T08:59:02.778Z,18.52
2023-02-14T09:01:30.289Z,17.55
2023-02-14T09:04:02.250Z,17.92
2023-02-14T09:06:29.763Z,16.35
2023-02-14T09:08:57.107Z,16.88
2023-02-14T09:11:25.465Z,16.90
2023-02-14T09:13:53.558Z,17.08
2023-02-14T09:16:22.778Z,15.00
2023-02-14T09:18:50.329Z,14.13
2023-02-14T09:21:19.969Z,14.35
2023-02-14T09:23:47.364Z,14.85
2023-02-14T09:26:18.363Z,13.57
2023-02-14T09:28:46.082Z,13.63
2023-02-14T09:31:14.849Z,14.77
2023-02-14T09:34:02.033Z,13.02
2023-02-14T09:36:29.101Z,16.75
2023-02-14T09:38:56.568Z,13.82
2023-02-14T09:41:29.971Z,15.15
2023-02-14T09:44:17.228Z,15.65
2023-02-14T09:46:50.919Z,14.48
2023-02-14T09:49:25.184Z,11.15
2023-02-14T09:51:53.866Z,13.70
2023-02-14T09:54:26.879Z,13.80
2023-02-14T09:57:24.587Z,12.50
2023-02-14T10:00:03.709Z,13.93
2023-02-14T10:02:49.215Z,13.23
2023-02-14T10:05:27.064Z,11.52
2023-02-14T10:07:57.822Z,12.90
2023-02-14T10:10:27.687Z,12.60
2023-02-14T10:13:07.026Z,14.07
2023-02-14T10:15:42.481Z,13.55
2023-02-14T10:18:22.777Z,12.55
2023-02-14T10:21:02.242Z,13.65
2023-02-14T10:23:35.445Z,12.45
2023-02-14T10:26:06.781Z,13.70
2023-02-14T10:28:52.430Z,13.10
2023-02-14T10:31:37.753Z,13.68
2023-02-14T10:34:09.391Z,12.27
2023-02-14T10:37:14.126Z,13.07
2023-02-14T10:40:02.323Z,13.73
2023-02-14T10:43:13.324Z,12.40
2023-02-14T10:46:03.953Z,14.10
2023-02-14T10:48:53.733Z,13.68
2023-02-14T10:51:34.085Z,15.20
2023-02-14T10:54:17.299Z,13.38
2023-02-14T10:56:52.255Z,13.52
2023-02-14T10:59:26.294Z,14.88
2023-02-14T11:01:55.500Z,12.18
2023-02-14T11:04:25.419Z,14.18
2023-02-14T11:06:54.077Z,14.00
2023-02-14T11:09:21.704Z,13.75
2023-02-14T11:11:57.669Z,13.32
2023-02-14T11:14:32.691Z,13.48
2023-02-14T11:17:01.370Z,12.38
2023-02-14T11:19:37.343Z,13.52
2023-02-14T11:22:05.069Z,13.32
2023-02-14T11:24:35.242Z,13.90
2023-02-14T11:27:08.348Z,14.38
2023-02-14T11:29:55.920Z,13.73
2023-02-14T11:32:31.870Z,11.85
2023-02-14T11:35:04.207Z,13.18
2023-02-14T11:37:44.136Z,12.50
2023-02-14T11:40:28.287Z,13.70
2023-02-14T11:43:13.517Z,13.45
2023-02-14T11:45:44.753Z,12.95
2023-02-14T11:48:31.485Z,13.23
2023-02-14T11:51:15.478Z,13.10
2023-02-14T11:53:52.555Z,12.05
2023-02-14T11:56:22.384Z,15.73
2023-02-14T11:58:55.989Z,14.82
2023-02-14T12:01:31.742Z,12.65
2023-02-14T12:04:03.638Z,12.40
2023-02-14T12:06:34.274Z,14.55
2023-02-14T12:09:23.543Z,13.63
2023-02-14T12:12:05.258Z,13.52
2023-02-14T12:14:35.809Z,13.25
2023-02-14T12:17:06.074Z,13.00
2023-02-14T12:19:56.087Z,12.88
2023-02-14T12:22:30.215Z,14.18
2023-02-14T12:25:10.539Z,12.75
2023-02-14T12:27:57.344Z,12.95
2023-02-14T12:30:27.356Z,13.75
2023-02-14T12:32:56.869Z,12.98
2023-02-14T12:35:59.992Z,12.93
2023-02-14T12:38:49.144Z,13.20
2023-02-14T12:41:28.490Z,12.75
2023-02-14T12:44:19.803Z,12.55
2023-02-14T12:47:15.332Z,13.50
2023-02-14T12:49:58.689Z,12.52
2023-02-14T12:52:50.631Z,12.98
2023-02-14T12:55:36.515Z,14.15
2023-02-14T12:58:34.005Z,12.63
2023-02-14T13:01:46.486Z,13.02
2023-02-14T13:04:31.107Z,11.65
2023-02-14T13:07:11.916Z,13.57
2023-02-14T13:10:00.051Z,11.98
2023-02-14T13:13:01.845Z,13.77
2023-02-14T13:15:45.721Z,12.80
2023-02-14T13:18:32.752Z,12.30
2023-02-14T13:21:03.701Z,13.63
2023-02-14T13:23:39.858Z,13.02
2023-02-14T13:26:18.197Z,12.45
2023-02-14T13:29:01.578Z,13.15
2023-02-14T13:31:29.073Z,11.77
2023-02-14T13:34:14.843Z,12.70
2023-02-14T13:39:21.534Z,12.07
2023-02-14T13:41:48.938Z,13.10
2023-02-14T13:44:39.065Z,13.77
2023-02-14T13:47:08.243Z,13.15
2023-02-14T13:49:39.049Z,12.90
2023-02-14T13:52:06.900Z,14.48
2023-02-14T13:54:36.190Z,15.07
2023-02-14T13:57:38.532Z,12.93
2023-02-14T14:00:21.988Z,12.25
2023-02-14T14:02:55.015Z,13.02
2023-02-14T14:05:35.678Z,11.32
2023-02-14T14:08:21.416Z,13.43
2023-02-14T14:13:43.180Z,13.23
2023-02-14T14:16:28.605Z,13.95
2023-02-14T14:18:59.489Z,13.90
2023-02-14T14:21:30.847Z,13.57
2023-02-14T14:24:15.111Z,12.65
2023-02-14T14:26:50.306Z,11.15
2023-02-14T14:29:26.081Z,13.18
2023-02-14T14:31:56.593Z,12.85
2023-02-14T14:34:27.003Z,11.63
2023-02-14T14:37:15.528Z,14.27
2023-02-14T14:39:42.908Z,12.95
2023-02-14T14:42:17.289Z,13.80
2023-02-14T14:44:54.956Z,15.27
2023-02-14T14:47:28.873Z,14.75
2023-02-14T14:50:04.405Z,12.55
2023-02-14T14:55:07.161Z,13.55
2023-02-14T14:57:37.025Z,15.30
2023-02-14T15:00:27.764Z,12.85
2023-02-14T15:02:59.822Z,12.93
2023-02-14T15:05:34.905Z,13.07
2023-02-14T15:08:35.769Z,13.63
2023-02-14T15:11:39.867Z,13.23
2023-02-14T15:14:11.174Z,13.40
2023-02-14T15:17:01.777Z,12.23
2023-02-14T15:19:45.803Z,13.35
2023-02-14T15:22:42.324Z,14.27
2023-02-14T15:25:13.175Z,13.88
2023-02-14T15:27:43.157Z,13.07
2023-02-14T15:30:35.299Z,13.55
2023-02-14T15:33:03.953Z,15.10
2023-02-14T15:35:39.360Z,14.20
2023-02-14T15:38:10.549Z,14.82
2023-02-14T15:40:39.066Z,12.20
2023-02-14T15:43:25.375Z,13.50
2023-02-14T15:46:05.924Z,13.68
2023-02-14T15:48:34.813Z,13.45
2023-02-14T15:51:05.173Z,13.38
2023-02-14T15:53:58.623Z,13.70
2023-02-14T15:56:31.861Z,15.55
2023-02-14T15:59:07.441Z,15.07
2023-02-14T16:01:37.139Z,15.07
2023-02-14T16:04:07.221Z,13.82
2023-02-14T16:06:39.291Z,14.60
2023-02-14T16:09:27.102Z,13.52
2023-02-14T16:11:54.599Z,13.57
2023-02-14T16:14:32.633Z,14.43
2023-02-14T16:17:11.241Z,14.32
2023-02-14T16:19:43.828Z,13.70
2023-02-14T16:22:13.515Z,14.40
2023-02-14T16:24:42.319Z,15.35
2023-02-14T16:27:10.003Z,14.57
2023-02-14T16:29:37.364Z,15.07
2023-02-14T16:32:20.442Z,15.50
2023-02-14T16:34:48.606Z,15.73
2023-02-14T16:37:25.088Z,14.25
2023-02-14T16:39:57.837Z,14.65
2023-02-14T16:42:25.813Z,13.35
2023-02-14T16:44:53.282Z,15.13
2023-02-14T16:47:21.681Z,17.17
2023-02-14T16:49:50.964Z,15.07
2023-02-14T16:52:26.372Z,15.32
2023-02-14T16:54:53.755Z,14.57
2023-02-14T16:57:28.222Z,14.52
2023-02-14T16:59:57.009Z,15.95
2023-02-14T17:02:28.684Z,17.23
2023-02-14T17:04:56.660Z,14.80
2023-02-14T17:07:24.125Z,15.77
2023-02-14T17:09:56.341Z,15.13
2023-02-14T17:12:29.723Z,14.73
2023-02-14T17:15:02.523Z,14.65
2023-02-14T17:17:30.713Z,14.75
2023-02-14T17:19:58.201Z,15.23
2023-02-14T17:22:25.505Z,16.02
2023-02-14T17:24:55.123Z,14.95
2023-02-14T17:27:24.008Z,15.80
2023-02-14T17:29:52.302Z,16.05
2023-02-14T17:32:19.640Z,17.60
2023-02-14T17:34:47.025Z,15.98
2023-02-14T17:37:14.202Z,29.17
2023-02-14T17:39:41.378Z,51.17
2023-02-14T17:42:11.022Z,36.28
2023-02-14T17:44:40.220Z,24.55
2023-02-14T17:47:07.482Z,18.10
2023-02-14T17:49:34.709Z,18.58
2023-02-14T17:52:03.043Z,15.93
2023-02-14T17:54:37.475Z,19.00
2023-02-14T17:57:05.152Z,17.93
2023-02-14T17:59:33.233Z,16.73
2023-02-14T18:02:00.670Z,16.02
2023-02-14T18:04:30.429Z,18.73
2023-02-14T18:06:57.632Z,15.77
2023-02-14T18:09:26.067Z,17.45
2023-02-14T18:11:53.308Z,15.82
2023-02-14T18:14:20.722Z,15.90
2023-02-14T18:16:48.539Z,24.92
2023-02-14T18:19:19.209Z,18.75
2023-02-14T18:21:46.535Z,14.43
2023-02-14T18:24:15.833Z,14.27
2023-02-14T18:26:45.905Z,17.33
2023-02-14T18:29:13.808Z,15.00
2023-02-14T18:31:43.573Z,14.30
2023-02-14T18:34:11.372Z,15.57
2023-02-14T18:36:41.419Z,16.35
2023-02-14T18:39:10.796Z,16.90
2023-02-14T18:41:38.102Z,16.73
2023-02-14T18:44:06.304Z,16.88
2023-02-14T18:46:35.981Z,15.77
2023-02-14T18:49:08.755Z,14.68
2023-02-14T18:51:39.482Z,18.73
2023-02-14T18:54:07.639Z,13.48
2023-02-14T18:56:37.401Z,15.88
2023-02-14T18:59:09.998Z,15.13
2023-02-14T19:01:42.370Z,15.73
2023-02-14T19:04:12.472Z,16.05
2023-02-14T19:06:41.683Z,14.80
2023-02-14T19:09:14.157Z,15.25
2023-02-14T19:11:41.762Z,15.30
2023-02-14T19:14:10.554Z,14.63
2023-02-14T19:16:43.586Z,16.05
2023-02-14T19:19:11.819Z,14.55
2023-02-14T19:21:39.307Z,15.20
2023-02-14T19:24:07.521Z,15.38
2023-02-14T19:26:40.869Z,16.70
2023-02-14T19:29:15.239Z,16.90
2023-02-14T19:31:45.877Z,14.18
2023-02-14T19:34:19.536Z,16.05
2023-02-14T19:36:47.967Z,16.08
2023-02-14T19:39:16.120Z,15.25
2023-02-14T19:41:43.771Z,16.67
2023-02-14T19:44:14.439Z,15.45
2023-02-14T19:46:43.296Z,15.65
2023-02-14T19:49:15.589Z,15.38
2023-02-14T19:51:43.270Z,16.63
2023-02-14T19:54:16.115Z,15.50
2023-02-14T19:56:46.898Z,15.75
2023-02-14T19:59:20.382Z,15.27
2023-02-14T20:01:51.385Z,15.35
2023-02-14T20:04:27.420Z,15.18
2023-02-14T20:06:55.294Z,17.38
2023-02-14T20:09:23.934Z,16.02
2023-02-14T20:11:55.177Z,15.68
2023-02-14T20:14:27.136Z,17.45
2023-02-14T20:16:56.539Z,16.88
2023-02-14T20:19:29.721Z,17.25
2023-02-14T20:21:57.077Z,18.17
2023-02-14T20:24:27.436Z,16.10
2023-02-14T20:26:56.019Z,16.33
2023-02-14T20:29:25.165Z,17.15
2023-02-14T20:31:54.518Z,15.80
2023-02-14T20:34:22.412Z,14.35
2023-02-14T20:36:53.521Z,15.45
2023-02-14T20:39:23.833Z,17.25
2023-02-14T20:41:54.587Z,17.67
2023-02-14T20:44:23.402Z,17.17
2023-02-14T20:46:52.731Z,16.25
2023-02-14T20:49:21.427Z,16.80
2023-02-14T20:51:52.764Z,16.05
2023-02-14T20:54:22.798Z,16.33
2023-02-14T20:56:50.954Z,15.70
2023-02-14T20:59:29.155Z,15.27
2023-02-14T21:01:57.965Z,15.88
2023-02-14T21:04:25.763Z,15.48
2023-02-14T21:06:53.042Z,16.85
2023-02-14T21:09:21.369Z,17.75
2023-02-14T21:11:48.611Z,16.38
2023-02-14T21:14:17.601Z,15.10
2023-02-14T21:16:44.937Z,15.18
2023-02-14T21:19:12.281Z,17.38
2023-02-14T21:21:39.781Z,16.75
2023-02-14T21:24:16.987Z,15.32
2023-02-14T21:26:44.825Z,15.27
2023-02-14T21:29:12.266Z,15.23
2023-02-14T21:31:39.940Z,16.67
2023-02-14T21:34:10.028Z,16.42
2023-02-14T21:36:40.459Z,14.57
2023-02-14T21:39:08.209Z,16.10
2023-02-14T21:41:36.916Z,16.50
2023-02-14T21:44:05.097Z,14.80
2023-02-14T21:46:37.399Z,14.90
2023-02-14T21:49:24.474Z,16.92
2023-02-14T21:51:51.936Z,15.85
2023-02-14T21:54:19.431Z,15.07
2023-02-14T21:56:47.060Z,15.32
2023-02-14T21:59:14.583Z,15.75
2023-02-14T22:01:47.661Z,16.52
2023-02-14T22:04:15.128Z,15.48
2023-02-14T22:06:43.522Z,18.35
2023-02-14T22:09:13.257Z,15.40
2023-02-14T22:11:41.132Z,17.67
2023-02-14T22:14:08.748Z,16.95
2023-02-14T22:16:37.072Z,13.40
2023-02-14T22:19:05.603Z,16.42
2023-02-14T22:21:33.799Z,15.55
2023-02-14T22:24:01.830Z,15.15
2023-02-14T22:26:35.676Z,14.00
2023-02-14T22:29:03.509Z,16.85
2023-02-14T22:31:35.651Z,16.98
2023-02-14T22:34:04.948Z,16.83
2023-02-14T22:36:32.560Z,16.70
2023-02-14T22:39:00.184Z,19.02
2023-02-14T22:41:27.506Z,14.32
2023-02-14T22:43:56.305Z,17.85
2023-02-14T22:46:28.819Z,16.95
2023-02-14T22:48:57.027Z,15.02
2023-02-14T22:51:34.844Z,17.65
2023-02-14T22:54:05.228Z,15.57
2023-02-14T22:56:41.419Z,17.38
2023-02-14T22:59:17.887Z,17.02
2023-02-14T23:01:46.033Z,18.45
2023-02-14T23:04:19.063Z,18.35
2023-02-14T23:06:46.711Z,18.65
2023-02-14T23:09:14.970Z,16.00
2023-02-14T23:11:43.882Z,17.40
2023-02-14T23:14:31.570Z,18.55
2023-02-14T23:17:25.390Z,16.25
2023-02-14T23:20:11.653Z,16.05
2023-02-14T23:22:41.193Z,17.02
2023-02-14T23:25:11.890Z,16.83
2023-02-14T23:27:43.590Z,17.13
2023-02-14T23:30:14.602Z,15.75
2023-02-14T23:32:42.632Z,19.15
2023-02-14T23:35:11.296Z,20.05
2023-02-14T23:37:38.635Z,17.75
2023-02-14T23:40:08.766Z,17.50
2023-02-14T23:42:35.882Z,16.95
2023-02-14T23:45:21.545Z,17.80
2023-02-14T23:47:48.901Z,18.63
2023-02-14T23:50:16.469Z,18.67
2023-02-14T23:52:44.826Z,20.60
2023-02-14T23:55:12.844Z,21.10
2023-02-14T23:57:40.449Z,21.02
